createdAt,value
2023-04-12T00:01:11.397Z,20.12
2023-04-12T00:03:40.056Z,20.10
2023-04-12T00:06:07.947Z,20.13
2023-04-12T00:08:35.690Z,20.11
2023-04-12T00:11:04.067Z,20.02
2023-04-12T00:13:31.239Z,20.02
2023-04-12T00:16:00.202Z,20.03
2023-04-12T00:18:27.953Z,20.01
2023-04-12T00:20:58.194Z,19.99
2023-04-12T00:23:25.567Z,19.98
2023-04-12T00:25:52.654Z,19.98
2023-04-12T00:28:19.794Z,19.99
2023-04-12T00:30:47.985Z,19.98
2023-04-12T00:33:15.107Z,19.95
2023-04-12T00:35:42.182Z,19.96
2023-04-12T00:38:16.325Z,19.95
2023-04-12T00:40:46.645Z,19.96
2023-04-12T00:43:18.763Z,19.97
2023-04-12T00:45:50.009Z,19.86
2023-04-12T00:48:17.667Z,19.93
2023-04-12T00:50:47.708Z,19.90
2023-04-12T00:53:20.272Z,19.90
2023-04-12T00:55:50.181Z,19.84
2023-04-12T00:58:17.750Z,19.84
2023-04-12T01:00:53.197Z,19.83
2023-04-12T01:03:25.005Z,19.80
2023-04-12T01:06:14.178Z,19.76
2023-04-12T01:08:58.044Z,19.69
2023-04-12T01:11:45.178Z,19.63
2023-04-12T01:14:30.135Z,19.60
2023-04-12T01:17:05.707Z,19.60
2023-04-12T01:19:37.812Z,19.58
2023-04-12T01:22:33.816Z,19.55
2023-04-12T01:25:07.730Z,19.54
2023-04-12T01:28:04.603Z,19.50
2023-04-12T01:30:32.905Z,19.54
2023-04-12T01:33:07.080Z,19.53
2023-04-12T01:35:35.542Z,19.49
2023-04-12T01:38:04.671Z,19.53
2023-04-12T01:40:32.750Z,19.47
2023-04-12T01:43:06.830Z,19.48
2023-04-12T01:45:34.822Z,19.50
2023-04-12T01:48:08.598Z,19.52
2023-04-12T01:50:44.999Z,19.50
2023-04-12T01:53:20.207Z,19.52
2023-04-12T01:55:57.259Z,19.56
2023-04-12T01:58:27.302Z,19.49
2023-04-12T02:00:56.118Z,19.53
2023-04-12T02:03:27.682Z,19.53
2023-04-12T02:05:58.400Z,19.38
2023-04-12T02:08:26.484Z,19.42
2023-04-12T02:10:56.179Z,19.34
2023-04-12T02:13:25.766Z,19.21
2023-04-12T02:15:55.982Z,19.26
2023-04-12T02:18:27.596Z,19.29
2023-04-12T02:20:56.795Z,19.21
2023-04-12T02:23:24.027Z,19.26
2023-04-12T02:25:53.871Z,19.24
2023-04-12T02:28:23.270Z,19.25
2023-04-12T02:30:53.987Z,19.25
2023-04-12T02:33:28.492Z,19.12
2023-04-12T02:35:58.071Z,19.08
2023-04-12T02:38:28.190Z,19.12
2023-04-12T02:40:59.068Z,19.05
2023-04-12T02:43:28.220Z,18.97
2023-04-12T02:46:01.172Z,19.11
2023-04-12T02:48:31.194Z,18.98
2023-04-12T02:51:01.654Z,19.10
2023-04-12T02:53:31.551Z,19.11
2023-04-12T02:56:12.339Z,19.13
2023-04-12T02:58:42.799Z,19.13
2023-04-12T03:01:13.520Z,19.08
2023-04-12T03:04:07.757Z,19.10
2023-04-12T03:06:52.945Z,19.17
2023-04-12T03:09:27.343Z,19.19
2023-04-12T03:11:56.138Z,19.19
2023-04-12T03:14:26.170Z,19.06
2023-04-12T03:16:53.789Z,18.96
2023-04-12T03:19:21.385Z,19.11
2023-04-12T03:21:55.283Z,19.14
2023-04-12T03:24:22.908Z,19.14
2023-04-12T03:26:52.444Z,19.12
2023-04-12T03:29:27.112Z,19.08
2023-04-12T03:31:56.253Z,19.07
2023-04-12T03:34:23.444Z,18.92
2023-04-12T03:36:56.027Z,18.94
2023-04-12T03:39:36.901Z,18.91
2023-04-12T03:42:05.951Z,18.92
2023-04-12T03:44:34.110Z,18.85
2023-04-12T03:47:07.454Z,18.82
2023-04-12T03:49:38.663Z,18.81
2023-04-12T03:52:10.785Z,18.83
2023-04-12T03:54:39.938Z,18.75
2023-04-12T03:57:10.482Z,18.75
2023-04-12T03:59:41.527Z,18.74
2023-04-12T04:02:09.842Z,18.71
2023-04-12T04:04:44.360Z,18.68
2023-04-12T04:07:14.575Z,18.65
2023-04-12T04:09:44.813Z,18.69
2023-04-12T04:12:12.640Z,18.67
2023-04-12T04:14:45.355Z,18.70
2023-04-12T04:17:19.649Z,18.65
2023-04-12T04:19:47.797Z,18.59
2023-04-12T04:22:18.115Z,18.56
2023-04-12T04:24:46.123Z,18.50
2023-04-12T04:27:16.024Z,18.52
2023-04-12T04:29:47.209Z,18.45
2023-04-12T04:32:17.182Z,18.48
2023-04-12T04:34:46.382Z,18.50
2023-04-12T04:37:19.316Z,18.46
2023-04-12T04:39:48.547Z,18.42
2023-04-12T04:42:15.816Z,18.42
2023-04-12T04:45:06.734Z,18.34
2023-04-12T04:47:41.415Z,18.32
2023-04-12T04:50:11.686Z,18.17
2023-04-12T04:52:39.759Z,18.19
2023-04-12T04:55:14.066Z,18.29
2023-04-12T04:57:45.509Z,18.25
2023-04-12T05:00:18.476Z,18.07
2023-04-12T05:02:53.521Z,18.13
2023-04-12T05:05:29.541Z,18.11
2023-04-12T05:08:06.827Z,18.17
2023-04-12T05:10:35.921Z,17.89
2023-04-12T05:13:03.698Z,17.80
2023-04-12T05:15:32.180Z,17.89
2023-04-12T05:18:01.123Z,17.96
2023-04-12T05:20:37.004Z,17.71
2023-04-12T05:23:08.559Z,17.83
2023-04-12T05:25:38.868Z,17.46
2023-04-12T05:28:19.252Z,17.60
2023-04-12T05:30:50.710Z,17.44
2023-04-12T05:33:22.672Z,17.01
2023-04-12T05:35:56.908Z,17.43
2023-04-12T05:38:29.212Z,17.53
2023-04-12T05:41:09.098Z,17.27
2023-04-12T05:43:41.574Z,17.41
2023-04-12T05:46:17.250Z,17.36
2023-04-12T05:48:55.224Z,17.57
2023-04-12T05:51:43.583Z,17.40
2023-04-12T05:54:25.793Z,16.99
2023-04-12T05:57:02.383Z,17.41
2023-04-12T05:59:56.531Z,17.58
2023-04-12T06:02:34.708Z,17.58
2023-04-12T06:07:52.586Z,17.79
2023-04-12T06:10:29.263Z,17.93
2023-04-12T06:12:57.144Z,18.08
2023-04-12T06:15:27.421Z,18.17
2023-04-12T06:18:04.000Z,18.24
2023-04-12T06:20:39.989Z,18.33
2023-04-12T06:23:29.328Z,18.35
2023-04-12T06:26:07.571Z,18.28
2023-04-12T06:28:39.981Z,18.36
2023-04-12T06:31:22.154Z,18.34
2023-04-12T06:33:51.077Z,18.46
2023-04-12T06:36:29.492Z,18.48
2023-04-12T06:39:08.417Z,18.43
2023-04-12T06:41:43.867Z,18.48
2023-04-12T06:44:14.134Z,18.49
2023-04-12T06:46:59.309Z,18.39
2023-04-12T06:49:27.344Z,18.51
2023-04-12T06:54:59.725Z,18.56
2023-04-12T06:57:34.735Z,18.59
2023-04-12T07:00:06.361Z,18.71
2023-04-12T07:02:41.517Z,18.78
2023-04-12T07:05:14.915Z,18.85
2023-04-12T07:07:48.640Z,18.93
2023-04-12T07:10:26.708Z,19.00
2023-04-12T07:13:07.938Z,19.07
2023-04-12T07:15:38.303Z,19.15
2023-04-12T07:18:15.976Z,19.16
2023-04-12T07:20:44.059Z,19.21
2023-04-12T07:23:15.635Z,19.23
2023-04-12T07:25:58.698Z,19.25
2023-04-12T07:28:42.552Z,19.25
2023-04-12T07:31:24.353Z,19.28
2023-04-12T07:34:01.192Z,19.40
2023-04-12T07:36:35.140Z,19.32
2023-04-12T07:39:15.898Z,19.38
2023-04-12T07:44:41.596Z,19.39
2023-04-12T07:47:11.245Z,19.42
2023-04-12T07:49:55.174Z,19.65
2023-04-12T07:52:29.137Z,19.37
2023-04-12T07:55:01.357Z,19.64
2023-04-12T07:57:42.048Z,19.66
2023-04-12T08:00:19.218Z,19.48
2023-04-12T08:02:54.879Z,19.62
2023-04-12T08:05:29.807Z,19.87
2023-04-12T08:08:13.031Z,19.79
2023-04-12T08:10:43.766Z,19.42
2023-04-12T08:13:13.602Z,19.77
2023-04-12T08:15:41.673Z,19.90
2023-04-12T08:18:09.230Z,20.06
2023-04-12T08:20:39.098Z,20.32
2023-04-12T08:23:07.394Z,20.22
2023-04-12T08:25:35.165Z,20.82
2023-04-12T08:28:13.796Z,21.26
2023-04-12T08:30:47.076Z,21.11
2023-04-12T08:33:20.174Z,21.40
2023-04-12T08:35:47.547Z,21.60
2023-04-12T08:38:14.952Z,21.45
2023-04-12T08:40:48.499Z,21.04
2023-04-12T08:43:18.084Z,21.38
2023-04-12T08:45:53.321Z,21.51
2023-04-12T08:48:23.128Z,22.14
2023-04-12T08:50:55.409Z,22.13
2023-04-12T08:53:26.147Z,22.06
2023-04-12T08:55:54.241Z,22.29
2023-04-12T08:58:23.909Z,22.95
2023-04-12T09:01:00.201Z,23.06
2023-04-12T09:03:33.676Z,23.38
2023-04-12T09:06:04.304Z,23.96
2023-04-12T09:08:31.911Z,23.84
2023-04-12T09:10:59.559Z,23.91
2023-04-12T09:13:40.218Z,24.11
2023-04-12T09:16:11.126Z,24.11
2023-04-12T09:19:05.750Z,24.67
2023-04-12T09:21:40.068Z,25.20
2023-04-12T09:24:15.174Z,24.91
2023-04-12T09:26:42.510Z,25.33
2023-04-12T09:29:26.002Z,24.72
2023-04-12T09:32:03.377Z,25.29
2023-04-12T09:34:33.624Z,24.83
2023-04-12T09:37:19.300Z,25.36
2023-04-12T09:40:01.188Z,25.34
2023-04-12T09:42:36.395Z,24.74
2023-04-12T09:45:24.450Z,25.62
2023-04-12T09:47:52.808Z,24.25
2023-04-12T09:50:39.144Z,24.69
2023-04-12T09:53:20.251Z,24.71
2023-04-12T09:56:08.113Z,24.87
2023-04-12T09:59:05.559Z,24.95
2023-04-12T10:01:49.272Z,24.17
2023-04-12T10:04:25.989Z,24.85
2023-04-12T10:07:03.341Z,25.31
2023-04-12T10:09:39.667Z,24.74
2023-04-12T10:12:22.064Z,25.05
2023-04-12T10:15:18.449Z,25.35
2023-04-12T10:18:03.506Z,25.39
2023-04-12T10:20:47.925Z,25.64
2023-04-12T10:24:12.419Z,25.95
2023-04-12T10:26:50.710Z,25.51
2023-04-12T10:29:35.079Z,25.25
2023-04-12T10:32:28.608Z,25.29
2023-04-12T10:35:18.148Z,25.22
2023-04-12T10:38:06.141Z,25.30
2023-04-12T10:43:57.835Z,24.55
2023-04-12T10:46:40.872Z,24.63
2023-04-12T10:49:23.380Z,24.91
2023-04-12T10:52:03.070Z,24.68
2023-04-12T10:54:41.549Z,25.38
2023-04-12T10:57:45.731Z,26.21
2023-04-12T11:00:20.644Z,26.51
2023-04-12T11:03:13.092Z,25.97
2023-04-12T11:06:20.191Z,25.85
2023-04-12T11:09:29.060Z,25.84
2023-04-12T11:12:14.876Z,25.77
2023-04-12T11:14:47.822Z,25.08
2023-04-12T11:17:17.791Z,25.90
2023-04-12T11:19:47.387Z,25.78
2023-04-12T11:22:16.637Z,25.36
2023-04-12T11:24:49.826Z,24.90
2023-04-12T11:27:28.732Z,24.90
2023-04-12T11:30:01.289Z,25.59
2023-04-12T11:32:39.492Z,25.89
2023-04-12T11:35:27.803Z,26.16
2023-04-12T11:38:04.084Z,26.54
2023-04-12T11:40:39.958Z,26.29
2023-04-12T11:43:07.213Z,27.03
2023-04-12T11:45:41.513Z,27.01
2023-04-12T11:48:18.060Z,26.75
2023-04-12T11:50:48.351Z,26.89
2023-04-12T11:53:27.893Z,25.66
2023-04-12T11:56:03.072Z,26.12
2023-04-12T11:58:36.402Z,25.24
2023-04-12T12:01:11.351Z,25.18
2023-04-12T12:03:42.343Z,25.88
2023-04-12T12:06:39.461Z,25.48
2023-04-12T12:09:07.481Z,25.81
2023-04-12T12:11:42.806Z,25.83
2023-04-12T12:14:15.992Z,26.06
2023-04-12T12:16:55.903Z,26.40
2023-04-12T12:19:37.781Z,26.92
2023-04-12T12:22:40.889Z,26.58
2023-04-12T12:25:15.332Z,27.42
2023-04-12T12:27:51.696Z,26.35
2023-04-12T12:30:25.215Z,26.98
2023-04-12T12:32:59.788Z,26.98
2023-04-12T12:35:33.490Z,26.45
2023-04-12T12:41:48.818Z,27.37
2023-04-12T12:44:43.481Z,28.50
2023-04-12T12:47:25.967Z,28.33
2023-04-12T12:49:55.085Z,28.36
2023-04-12T12:52:27.566Z,29.19
2023-04-12T12:55:13.056Z,28.25
2023-04-12T12:58:05.857Z,28.63
2023-04-12T13:00:42.028Z,27.85
2023-04-12T13:03:20.157Z,27.57
2023-04-12T13:05:54.267Z,28.87
2023-04-12T13:08:35.346Z,29.25
2023-04-12T13:11:12.421Z,28.95
2023-04-12T13:13:58.324Z,29.48
2023-04-12T13:16:40.662Z,29.67
2023-04-12T13:19:53.125Z,28.59
2023-04-12T13:22:21.490Z,28.44
2023-04-12T13:24:54.544Z,29.80
2023-04-12T13:27:26.070Z,29.18
2023-04-12T13:29:57.178Z,30.09
2023-04-12T13:32:25.081Z,30.20
2023-04-12T13:34:52.672Z,31.26
2023-04-12T13:37:21.736Z,31.48
2023-04-12T13:39:55.042Z,31.44
2023-04-12T13:42:25.772Z,31.85
2023-04-12T13:44:53.203Z,32.20
2023-04-12T13:47:23.647Z,32.52
2023-04-12T13:49:54.058Z,32.84
2023-04-12T13:52:21.596Z,32.23
2023-04-12T13:54:51.476Z,32.88
2023-04-12T13:57:18.994Z,32.95
2023-04-12T13:59:46.356Z,32.73
2023-04-12T14:02:14.425Z,32.72
2023-04-12T14:04:52.763Z,32.87
2023-04-12T14:07:20.888Z,32.76
2023-04-12T14:09:51.981Z,32.58
2023-04-12T14:12:19.297Z,32.80
2023-04-12T14:14:46.871Z,32.74
2023-04-12T14:17:15.088Z,32.98
2023-04-12T14:19:51.288Z,33.37
2023-04-12T14:22:18.571Z,33.50
2023-04-12T14:24:46.578Z,32.82
2023-04-12T14:27:18.331Z,32.57
2023-04-12T14:29:46.275Z,32.25
2023-04-12T14:32:13.596Z,32.80
2023-04-12T14:34:44.050Z,32.69
2023-04-12T14:37:14.158Z,32.78
2023-04-12T14:39:46.012Z,33.06
2023-04-12T14:42:17.008Z,32.56
2023-04-12T14:44:46.747Z,32.81
2023-04-12T14:47:17.672Z,32.67
2023-04-12T14:49:57.807Z,32.79
2023-04-12T14:52:25.715Z,32.50
2023-04-12T14:54:53.441Z,33.03
2023-04-12T14:57:20.976Z,32.86
2023-04-12T14:59:51.795Z,32.19
2023-04-12T15:02:22.183Z,32.84
2023-04-12T15:04:52.740Z,32.67
2023-04-12T15:07:20.235Z,32.29
2023-04-12T15:09:51.191Z,32.29
2023-04-12T15:12:21.281Z,32.18
2023-04-12T15:14:52.961Z,31.32
2023-04-12T15:17:21.275Z,31.20
2023-04-12T15:19:51.267Z,31.36
2023-04-12T15:22:19.297Z,31.23
2023-04-12T15:24:47.127Z,31.20
2023-04-12T15:27:21.198Z,31.01
2023-04-12T15:30:04.922Z,31.16
2023-04-12T15:32:41.986Z,31.10
2023-04-12T15:35:26.177Z,30.55
2023-04-12T15:38:02.366Z,30.52
2023-04-12T15:40:30.531Z,30.50
2023-04-12T15:43:01.401Z,30.57
2023-04-12T15:45:43.564Z,30.48
2023-04-12T15:48:17.347Z,30.52
2023-04-12T15:50:56.174Z,30.16
2023-04-12T15:53:28.664Z,29.24
2023-04-12T15:55:56.521Z,29.01
2023-04-12T15:58:27.071Z,28.70
2023-04-12T16:00:54.737Z,28.55
2023-04-12T16:03:29.292Z,28.35
2023-04-12T16:06:25.954Z,27.45
2023-04-12T16:09:05.328Z,27.39
2023-04-12T16:12:10.874Z,26.84
2023-04-12T16:14:44.366Z,26.53
2023-04-12T16:17:24.753Z,26.28
2023-04-12T16:20:01.044Z,26.01
2023-04-12T16:22:41.759Z,26.02
2023-04-12T16:25:12.460Z,25.88
2023-04-12T16:27:40.046Z,25.81
2023-04-12T16:30:10.599Z,25.81
2023-04-12T16:32:37.893Z,25.64
2023-04-12T16:35:09.128Z,25.66
2023-04-12T16:37:40.682Z,25.77
2023-04-12T16:40:13.110Z,25.42
2023-04-12T16:42:46.949Z,25.75
2023-04-12T16:45:23.334Z,25.34
2023-04-12T16:47:57.762Z,25.40
2023-04-12T16:50:38.645Z,25.40
2023-04-12T16:53:11.565Z,25.35
2023-04-12T16:55:49.144Z,25.30
2023-04-12T16:58:16.723Z,25.40
2023-04-12T17:00:50.858Z,25.23
2023-04-12T17:03:24.249Z,25.60
2023-04-12T17:05:58.073Z,25.38
2023-04-12T17:08:32.152Z,25.41
2023-04-12T17:11:06.560Z,25.49
2023-04-12T17:16:22.268Z,25.57
2023-04-12T17:18:56.746Z,25.33
2023-04-12T17:21:27.491Z,25.44
2023-04-12T17:24:12.045Z,25.33
2023-04-12T17:26:49.059Z,25.25
2023-04-12T17:29:25.367Z,25.20
2023-04-12T17:31:54.331Z,25.18
2023-04-12T17:34:43.291Z,25.10
2023-04-12T17:37:17.577Z,24.98
2023-04-12T17:39:45.104Z,25.08
2023-04-12T17:42:15.063Z,25.04
2023-04-12T17:44:44.832Z,24.89
2023-04-12T17:47:23.321Z,24.68
2023-04-12T17:49:57.624Z,24.65
2023-04-12T17:52:41.644Z,24.55
2023-04-12T17:55:19.646Z,24.58
2023-04-12T17:57:51.797Z,24.54
2023-04-12T18:00:25.525Z,24.44
2023-04-12T18:02:53.640Z,24.08
2023-04-12T18:05:22.049Z,24.17
2023-04-12T18:07:57.252Z,23.88
2023-04-12T18:10:26.977Z,24.00
2023-04-12T18:12:57.511Z,24.05
2023-04-12T18:15:28.543Z,24.00
2023-04-12T18:18:02.320Z,24.23
2023-04-12T18:20:33.484Z,24.21
2023-04-12T18:23:04.281Z,23.99
2023-04-12T18:25:39.053Z,23.64
2023-04-12T18:28:10.858Z,23.73
2023-04-12T18:30:42.175Z,23.63
2023-04-12T18:33:13.230Z,23.69
2023-04-12T18:35:45.397Z,23.77
2023-04-12T18:41:20.546Z,23.86
2023-04-12T18:43:47.814Z,23.98
2023-04-12T18:46:20.926Z,24.00
2023-04-12T18:48:59.609Z,23.85
2023-04-12T18:51:37.352Z,23.74
2023-04-12T18:54:11.596Z,23.67
2023-04-12T18:56:47.264Z,23.55
2023-04-12T18:59:25.279Z,23.44
2023-04-12T19:02:00.693Z,23.43
2023-04-12T19:04:32.040Z,23.54
2023-04-12T19:07:00.714Z,23.25
2023-04-12T19:09:41.383Z,23.30
2023-04-12T19:12:14.497Z,23.29
2023-04-12T19:14:45.158Z,23.33
2023-04-12T19:17:14.022Z,23.35
2023-04-12T19:19:47.533Z,23.20
2023-04-12T19:22:18.759Z,23.17
2023-04-12T19:24:56.336Z,23.18
2023-04-12T19:27:31.236Z,22.96
2023-04-12T19:30:09.990Z,23.03
2023-04-12T19:32:45.253Z,22.92
2023-04-12T19:35:26.851Z,23.00
2023-04-12T19:38:04.967Z,22.77
2023-04-12T19:40:37.187Z,22.81
2023-04-12T19:43:08.678Z,22.87
2023-04-12T19:45:49.694Z,22.74
2023-04-12T19:48:17.486Z,22.38
2023-04-12T19:50:50.591Z,22.52
2023-04-12T19:53:28.166Z,22.54
2023-04-12T19:56:02.397Z,22.26
2023-04-12T19:58:30.251Z,22.15
2023-04-12T20:01:00.746Z,22.11
2023-04-12T20:03:29.622Z,22.10
2023-04-12T20:06:02.091Z,21.75
2023-04-12T20:08:34.692Z,21.76
2023-04-12T20:11:10.999Z,21.66
2023-04-12T20:13:51.969Z,21.37
2023-04-12T20:16:30.028Z,21.31
2023-04-12T20:19:05.036Z,21.31
2023-04-12T20:21:40.127Z,21.34
2023-04-12T20:24:14.493Z,20.91
2023-04-12T20:26:55.109Z,20.76
2023-04-12T20:29:25.051Z,20.55
2023-04-12T20:31:58.548Z,20.63
2023-04-12T20:34:37.701Z,20.56
2023-04-12T20:37:09.944Z,20.79
2023-04-12T20:39:38.397Z,20.26
2023-04-12T20:42:09.458Z,20.32
2023-04-12T20:44:42.125Z,20.29
2023-04-12T20:47:14.197Z,20.43
2023-04-12T20:49:43.053Z,19.91
2023-04-12T20:52:13.973Z,19.76
2023-04-12T20:54:42.578Z,19.86
2023-04-12T20:57:23.475Z,19.72
2023-04-12T21:00:05.804Z,19.59
2023-04-12T21:02:33.543Z,19.31
2023-04-12T21:05:06.738Z,19.30
2023-04-12T21:07:45.155Z,19.25
2023-04-12T21:10:12.478Z,18.97
2023-04-12T21:12:41.279Z,19.14
2023-04-12T21:15:12.459Z,19.07
2023-04-12T21:17:43.065Z,18.96
2023-04-12T21:22:58.221Z,19.27
2023-04-12T21:25:28.762Z,19.64
2023-04-12T21:27:59.943Z,19.58
2023-04-12T21:30:35.857Z,19.32
2023-04-12T21:33:04.545Z,19.46
2023-04-12T21:35:36.667Z,19.43
2023-04-12T21:38:08.493Z,19.51
2023-04-12T21:40:37.534Z,19.54
2023-04-12T21:43:04.819Z,19.46
2023-04-12T21:45:36.176Z,19.11
2023-04-12T21:48:04.165Z,19.21
2023-04-12T21:50:32.234Z,19.05
2023-04-12T21:53:00.093Z,18.89
2023-04-12T21:55:28.775Z,18.84
2023-04-12T21:57:56.136Z,18.61
2023-04-12T22:00:25.060Z,18.81
2023-04-12T22:02:52.481Z,18.62
2023-04-12T22:05:22.693Z,18.61
2023-04-12T22:07:50.765Z,18.36
2023-04-12T22:10:21.205Z,18.70
2023-04-12T22:12:50.653Z,18.67
2023-04-12T22:15:26.322Z,18.61
2023-04-12T22:17:54.283Z,18.36
2023-04-12T22:20:22.026Z,18.38
2023-04-12T22:22:52.344Z,18.18
2023-04-12T22:25:22.371Z,18.17
2023-04-12T22:27:49.916Z,18.49
2023-04-12T22:30:18.417Z,18.56
2023-04-12T22:32:52.091Z,18.21
2023-04-12T22:35:20.807Z,18.21
2023-04-12T22:37:52.572Z,18.50
2023-04-12T22:40:22.804Z,18.32
2023-04-12T22:42:50.793Z,18.26
2023-04-12T22:45:18.320Z,18.47
2023-04-12T22:47:46.093Z,18.59
2023-04-12T22:50:14.233Z,18.58
2023-04-12T22:52:53.269Z,18.47
2023-04-12T22:55:24.854Z,18.51
2023-04-12T22:57:53.540Z,18.46
2023-04-12T23:00:24.607Z,18.53
2023-04-12T23:02:54.093Z,18.33
2023-04-12T23:05:21.510Z,18.14
2023-04-12T23:07:52.540Z,18.10
2023-04-12T23:10:23.279Z,17.88
2023-04-12T23:12:53.821Z,17.98
2023-04-12T23:15:25.032Z,17.91
2023-04-12T23:17:52.699Z,18.42
2023-04-12T23:20:23.634Z,18.31
2023-04-12T23:22:57.887Z,17.87
2023-04-12T23:25:39.459Z,17.89
2023-04-12T23:28:20.588Z,17.86
2023-04-12T23:30:52.138Z,17.63
2023-04-12T23:33:21.272Z,18.22
2023-04-12T23:35:52.959Z,18.14
2023-04-12T23:38:24.820Z,17.81
2023-04-12T23:40:55.825Z,17.40
2023-04-12T23:43:27.162Z,17.88
2023-04-12T23:45:58.089Z,17.69
2023-04-12T23:48:44.324Z,17.70
2023-04-12T23:51:14.978Z,17.86
2023-04-12T23:53:43.965Z,17.68
2023-04-12T23:56:14.549Z,17.56
